Weather History for Kimball, NE

Change the Weather History Date:

Monday, February 27, 2012

  Actual Average (KSNY) Record (KSNY)
Temperature  
Mean Temperature 26 °F 35 °F  
Max Temperature 44 °F 48 °F 70 °F (2006)
Min Temperature 8 °F 21 °F -20 °F (1962)
Degree Days  
Heating Degree Days 39 30  
Month to date heating degree days 895  
Since 1 July heating degree days 4552  
Cooling Degree Days 0 0  
Month to date cooling degree days 0  
Year to date cooling degree days 0  
Moisture  
Dew Point 9 °F    
Average Humidity 54    
Maximum Humidity 85    
Minimum Humidity 23    
Precipitation  
Precipitation 0.00 in 0.01 in 0.64 in (1987)
Month to date precipitation 0.30  
Year to date precipitation 0.50  
Sea Level Pressure  
Sea Level Pressure 30.07 in    
Wind  
Wind Speed 14 mph (South)    
Max Wind Speed 43 mph    
Max Gust Speed 51 mph    
Visibility 10 miles    
Events      
T = Trace of Precipitation, MM = Missing Value Source: NWS Daily Summary

Daily Weather History Graph

Daily Weather History Graph

Search for Another Location

Airport:

Trip Planner

Search our weather history database for the weather conditions in past years. The results will help you decide how hot, cold, wet, or windy it might be!

Date:

Astronomy

Feb. 27, 2012 Rise Set
Actual Time 7:32 AM CST 6:42 PM CST
Civil Twilight 7:05 AM CST 7:10 PM CST
Nautical Twilight 6:33 AM CST 7:42 PM CST
Astronomical Twilight 6:01 AM CST 8:14 PM CST
Moon 9:59 AM CST (2/27) No Moon Set
Length of Visible Light 12h 05m
Length of Day
11h 09m
Waxing Crescent, 29% of the Moon is Illuminated
Feb 27
Waxing Crescent
Feb 29
First Quarter
Mar 8
Full
Mar 14
Last Quarter
Mar 22
New

Hourly Weather History & Observations

Time (CST) Temp. Windchill Dew Point Humidity Pressure Visibility Wind Dir Wind Speed Gust Speed Precip Events Conditions
12:15 AM 18.3 °F 13.1 °F 8.8 °F 66% 30.16 in 10.0 mi North 3.5 mph - N/A   Clear
12:35 AM 18.7 °F 9.5 °F 10.0 °F 69% 30.15 in 10.0 mi North 6.9 mph - N/A   Clear
12:55 AM 17.6 °F - 9.5 °F 71% 30.16 in 10.0 mi Calm Calm - N/A   Clear
1:15 AM 16.7 °F 11.2 °F 8.4 °F 70% 30.16 in 10.0 mi ENE 3.5 mph - N/A   Clear
1:35 AM 16.7 °F - 8.4 °F 70% 30.17 in 10.0 mi Calm Calm - N/A   Clear
1:55 AM 13.3 °F 4.2 °F 7.9 °F 79% 30.17 in 10.0 mi SE 5.8 mph - N/A   Clear
2:15 AM 14.2 °F 3.1 °F 8.4 °F 78% 30.18 in 10.0 mi SSE 8.1 mph - N/A   Clear
2:35 AM 12.4 °F 4.6 °F 8.2 °F 83% 30.18 in 10.0 mi South 4.6 mph - N/A   Clear
2:55 AM 12.0 °F 2.7 °F 7.5 °F 82% 30.18 in 10.0 mi SSE 5.8 mph - N/A   Clear
3:15 AM 11.8 °F 2.5 °F 7.0 °F 81% 30.18 in 10.0 mi South 5.8 mph - N/A   Clear
3:35 AM 11.3 °F 3.3 °F 6.4 °F 81% 30.17 in 10.0 mi WSW 4.6 mph - N/A   Clear
3:55 AM 11.5 °F 5.3 °F 6.8 °F 81% 30.17 in 10.0 mi WSW 3.5 mph - N/A   Clear
4:15 AM 12.4 °F - 6.6 °F 78% 30.16 in 10.0 mi Calm Calm - N/A   Clear
4:35 AM 8.4 °F -1.6 °F 4.5 °F 84% 30.16 in 10.0 mi SE 5.8 mph - N/A   Clear
4:55 AM 9.0 °F 0.6 °F 4.8 °F 83% 30.15 in 10.0 mi South 4.6 mph - N/A   Clear
5:15 AM 9.7 °F -0.1 °F 4.6 °F 80% 30.15 in 10.0 mi SSE 5.8 mph - N/A   Clear
5:35 AM 12.4 °F 0.9 °F 6.8 °F 78% 30.14 in 10.0 mi South 8.1 mph - N/A   Clear
5:55 AM 16.7 °F 3.8 °F 10.6 °F 77% 30.15 in 10.0 mi SSE 11.5 mph - N/A   Clear
6:15 AM 17.8 °F 5.9 °F 12.4 °F 79% 30.14 in 10.0 mi SSE 10.4 mph - N/A   Clear
6:55 AM 16.5 °F 2.4 °F 12.7 °F 85% 30.15 in 10.0 mi SSE 13.8 mph - N/A   Clear
7:15 AM 15.3 °F 3.5 °F 11.5 °F 85% 30.14 in 10.0 mi South 9.2 mph - N/A   Clear
7:55 AM 14.4 °F 3.3 °F 9.3 °F 80% 30.14 in 10.0 mi SSE 8.1 mph - N/A   Clear
8:15 AM 14.2 °F 2.2 °F 8.8 °F 79% 30.14 in 10.0 mi SSE 9.2 mph - N/A   Clear
8:35 AM 17.2 °F 2.2 °F 10.6 °F 75% 30.13 in 10.0 mi SSE 16.1 mph - N/A   Clear
8:55 AM 19.9 °F 4.8 °F 12.0 °F 71% 30.13 in 10.0 mi SSE 18.4 mph 25.3 mph N/A   Clear
9:15 AM 21.4 °F 7.5 °F 12.7 °F 69% 30.13 in 10.0 mi SSE 16.1 mph 24.2 mph N/A   Clear
9:35 AM 25.0 °F 10.6 °F 12.9 °F 60% 30.13 in 10.0 mi SSE 20.7 mph 26.5 mph N/A   Clear
9:55 AM 26.2 °F 11.9 °F 12.0 °F 55% 30.11 in 10.0 mi SSE 21.9 mph 32.2 mph N/A   Clear
10:15 AM 28.2 °F 13.9 °F 11.3 °F 49% 30.11 in 10.0 mi South 24.2 mph 29.9 mph N/A   Unknown
10:35 AM 30.6 °F 17.3 °F 9.9 °F 42% 30.10 in 10.0 mi South 23.0 mph 31.1 mph N/A   Clear
10:55 AM 32.0 °F 18.6 °F 9.0 °F 38% 30.10 in 10.0 mi South 25.3 mph 35.7 mph N/A   Clear
11:15 AM 32.7 °F 19.6 °F 10.2 °F 39% 30.09 in 10.0 mi SSE 25.3 mph 33.4 mph N/A   Clear
11:35 AM 35.6 °F 21.7 °F 5.0 °F 28% 30.08 in 10.0 mi South 34.5 mph 41.4 mph N/A   Clear
11:55 AM 36.9 °F 23.4 °F 5.2 °F 27% 30.05 in 10.0 mi South 34.5 mph 44.9 mph N/A   Scattered Clouds
12:15 PM 36.9 °F 22.7 °F 5.7 °F 27% 30.04 in 10.0 mi South 39.1 mph 47.2 mph N/A   Clear
12:35 PM 38.5 °F 26.2 °F 7.0 °F 27% 30.02 in 10.0 mi South 31.1 mph 46.0 mph N/A   Scattered Clouds
12:55 PM 39.9 °F 26.8 °F 6.8 °F 25% 30.00 in 7.0 mi South 40.3 mph 50.6 mph N/A   Scattered Clouds
1:15 PM 40.3 °F 27.5 °F 6.6 °F 25% 30.00 in 10.0 mi South 39.1 mph 49.5 mph N/A   Clear
1:35 PM 41.0 °F 28.3 °F 7.3 °F 25% 29.98 in 7.0 mi South 40.3 mph 49.5 mph N/A   Clear
1:55 PM 42.3 °F 30.4 °F 7.3 °F 24% 29.96 in 10.0 mi South 38.0 mph 48.3 mph N/A   Clear
2:15 PM 43.0 °F 31.2 °F 7.2 °F 23% 29.96 in 7.0 mi South 39.1 mph 48.3 mph N/A   Clear
2:35 PM 43.0 °F 30.8 °F 8.2 °F 24% 29.95 in 10.0 mi South 42.6 mph 49.5 mph N/A   Clear
2:55 PM 43.7 °F 32.7 °F 9.3 °F 25% 29.94 in 10.0 mi South 35.7 mph 46.0 mph N/A   Clear
3:15 PM 43.9 °F 32.6 °F 10.0 °F 25% 29.94 in 10.0 mi South 38.0 mph 46.0 mph N/A   Clear
3:35 PM 43.7 °F 32.4 °F 10.4 °F 26% 29.94 in 10.0 mi South 38.0 mph 42.6 mph N/A   Clear
3:55 PM 43.7 °F 32.8 °F 10.2 °F 26% 29.93 in 10.0 mi South 34.5 mph 42.6 mph N/A   Clear
4:15 PM 43.9 °F 32.9 °F 9.9 °F 25% 29.92 in 10.0 mi South 35.7 mph 44.9 mph N/A   Clear
4:35 PM 44.6 °F 34.1 °F 11.3 °F 26% 29.91 in 10.0 mi South 34.5 mph 42.6 mph N/A   Clear
4:55 PM 44.1 °F 34.4 °F 12.0 °F 27% 29.90 in 10.0 mi South 27.6 mph 43.7 mph N/A   Clear
5:15 PM 44.1 °F 33.7 °F 13.5 °F 29% 29.89 in 10.0 mi South 32.2 mph 39.1 mph N/A   Clear
5:35 PM 43.7 °F 33.5 °F 14.7 °F 31% 29.89 in 10.0 mi South 29.9 mph 38.0 mph N/A   Clear
5:55 PM 43.0 °F 33.3 °F 16.7 °F 35% 29.89 in 10.0 mi South 25.3 mph 35.7 mph N/A   Clear
6:15 PM 41.9 °F 31.5 °F 18.0 °F 38% 29.89 in 10.0 mi South 27.6 mph 34.5 mph N/A   Clear
6:35 PM 40.5 °F 31.2 °F 19.4 °F 43% 29.89 in 10.0 mi South 19.6 mph 28.8 mph N/A   Clear
6:55 PM 39.4 °F 29.8 °F 20.8 °F 47% 29.89 in 10.0 mi South 19.6 mph 29.9 mph N/A   Clear
7:15 PM 37.2 °F 30.0 °F 19.2 °F 48% 29.90 in 10.0 mi SSE 10.4 mph - N/A   Clear
7:35 PM 33.8 °F 29.6 °F 18.3 °F 53% 29.91 in 10.0 mi East 4.6 mph - N/A   Clear
7:55 PM 33.1 °F 25.5 °F 20.1 °F 59% 29.91 in 10.0 mi ESE 9.2 mph - N/A   Clear
8:15 PM 33.8 °F 24.3 °F 20.3 °F 58% 29.91 in 10.0 mi SSE 13.8 mph - N/A   Clear
8:35 PM 33.3 °F 24.1 °F 19.4 °F 57% 29.90 in 10.0 mi SSE 12.7 mph - N/A   Clear
9:15 PM 32.0 °F 21.2 °F 19.4 °F 60% 29.89 in 10.0 mi SSE 16.1 mph - N/A   Clear
9:35 PM 30.6 °F 20.7 °F 19.4 °F 63% 29.89 in 10.0 mi SSE 12.7 mph - N/A   Clear
9:55 PM 29.3 °F 19.1 °F 19.8 °F 68% 29.89 in 10.0 mi SSE 12.7 mph - N/A   Clear
10:15 PM 28.4 °F 18.5 °F 19.4 °F 69% 29.88 in 10.0 mi SSE 11.5 mph - N/A   Clear
10:35 PM 27.1 °F 19.7 °F 19.4 °F 73% 29.88 in 10.0 mi SE 6.9 mph - N/A   Clear
10:55 PM 27.1 °F 17.5 °F 20.1 °F 75% 29.87 in 10.0 mi SSE 10.4 mph - N/A   Clear
11:15 PM 27.0 °F 16.1 °F 20.3 °F 76% 29.86 in 10.0 mi SE 12.7 mph - N/A   Clear
11:35 PM 26.6 °F 14.7 °F 20.1 °F 77% 29.85 in 10.0 mi SSE 15.0 mph - N/A   Clear
11:55 PM 26.1 °F 14.0 °F 19.8 °F 77% 29.84 in 10.0 mi SSE 15.0 mph - N/A   Clear